createdAt,value
2022-11-02T00:01:39.426Z,4.70
2022-11-02T00:04:06.842Z,4.68
2022-11-02T00:06:33.658Z,2.95
2022-11-02T00:09:00.379Z,3.28
2022-11-02T00:11:27.139Z,2.78
2022-11-02T00:13:53.858Z,7.43
2022-11-02T00:16:21.106Z,2.42
2022-11-02T00:18:49.051Z,2.42
2022-11-02T00:21:16.439Z,1.67
2022-11-02T00:23:43.152Z,1.92
2022-11-02T00:26:09.899Z,2.58
2022-11-02T00:28:36.937Z,2.92
2022-11-02T00:31:03.677Z,5.13
2022-11-02T00:33:30.643Z,4.50
2022-11-02T00:35:57.674Z,4.43
2022-11-02T00:38:24.488Z,3.85
2022-11-02T00:40:51.203Z,3.78
2022-11-02T00:43:17.890Z,1.58
2022-11-02T00:45:44.613Z,2.70
2022-11-02T00:48:11.298Z,5.63
2022-11-02T00:50:38.173Z,3.38
2022-11-02T00:53:05.119Z,2.67
2022-11-02T00:55:31.825Z,2.67
2022-11-02T00:57:58.822Z,2.17
2022-11-02T01:00:25.569Z,1.58
2022-11-02T01:02:52.316Z,2.72
2022-11-02T01:05:19.101Z,3.17
2022-11-02T01:07:45.821Z,2.67
2022-11-02T01:10:12.602Z,2.83
2022-11-02T01:12:40.217Z,4.05
2022-11-02T01:15:08.100Z,3.30
2022-11-02T01:17:34.898Z,2.45
2022-11-02T01:20:01.650Z,2.65
2022-11-02T01:22:28.442Z,2.13
2022-11-02T01:24:55.530Z,2.47
2022-11-02T01:27:22.316Z,3.42
2022-11-02T01:29:49.021Z,3.08
2022-11-02T01:32:15.730Z,3.90
2022-11-02T01:34:42.844Z,2.50
2022-11-02T01:37:10.579Z,2.72
2022-11-02T01:39:37.343Z,2.88
2022-11-02T01:42:04.299Z,1.85
2022-11-02T01:44:35.219Z,2.75
2022-11-02T01:47:12.236Z,2.75
2022-11-02T01:49:42.435Z,3.92
2022-11-02T01:52:15.278Z,3.72
2022-11-02T01:54:51.098Z,2.83
2022-11-02T01:57:19.670Z,2.05
2022-11-02T01:59:50.773Z,6.03
2022-11-02T02:02:21.184Z,2.40
2022-11-02T02:04:49.808Z,2.90
2022-11-02T02:07:16.541Z,4.85
2022-11-02T02:09:47.267Z,2.67
2022-11-02T02:12:17.141Z,4.82
2022-11-02T02:14:44.054Z,2.33
2022-11-02T02:17:43.948Z,2.08
2022-11-02T02:20:38.815Z,3.28
2022-11-02T02:23:31.267Z,3.40
2022-11-02T02:26:13.247Z,2.10
2022-11-02T02:28:44.662Z,2.95
2022-11-02T02:31:33.191Z,2.58
2022-11-02T02:34:21.209Z,2.42
2022-11-02T02:36:53.288Z,2.78
2022-11-02T02:39:38.659Z,1.83
2022-11-02T02:42:13.857Z,3.22
2022-11-02T02:44:45.851Z,4.47
2022-11-02T02:47:18.391Z,2.65
2022-11-02T02:49:53.920Z,1.42
2022-11-02T02:52:20.901Z,3.05
2022-11-02T02:54:47.807Z,2.25
2022-11-02T02:57:18.791Z,1.73
2022-11-02T02:59:49.408Z,3.03
2022-11-02T03:02:30.740Z,2.30
2022-11-02T03:04:57.612Z,1.60
2022-11-02T03:07:31.011Z,1.63
2022-11-02T03:10:07.846Z,1.65
2022-11-02T03:13:04.113Z,2.17
2022-11-02T03:15:45.775Z,2.58
2022-11-02T03:18:23.897Z,1.55
2022-11-02T03:21:22.566Z,2.10
2022-11-02T03:24:30.151Z,3.38
2022-11-02T03:27:18.323Z,2.15
2022-11-02T03:30:05.481Z,3.50
2022-11-02T03:32:39.936Z,2.58
2022-11-02T03:35:10.778Z,2.15
2022-11-02T03:38:35.599Z,2.42
2022-11-02T03:41:02.337Z,4.10
2022-11-02T03:43:29.080Z,3.40
2022-11-02T03:45:57.119Z,3.05
2022-11-02T03:48:28.382Z,1.83
2022-11-02T03:50:55.095Z,2.60
2022-11-02T03:53:27.159Z,2.63
2022-11-02T03:55:56.288Z,3.30
2022-11-02T03:58:23.010Z,3.83
2022-11-02T04:01:08.267Z,2.45
2022-11-02T04:03:35.133Z,2.20
2022-11-02T04:06:01.844Z,1.45
2022-11-02T04:08:36.696Z,2.85
2022-11-02T04:11:21.953Z,1.23
2022-11-02T04:14:07.247Z,2.35
2022-11-02T04:16:33.999Z,1.77
2022-11-02T04:19:19.609Z,2.08
2022-11-02T04:22:05.062Z,2.67
2022-11-02T04:24:51.081Z,1.73
2022-11-02T04:27:20.945Z,2.85
2022-11-02T04:29:48.192Z,0.90
2022-11-02T04:32:15.038Z,1.55
2022-11-02T04:34:41.729Z,2.05
2022-11-02T04:37:28.408Z,2.05
2022-11-02T04:39:55.125Z,1.40
2022-11-02T04:42:22.025Z,1.95
2022-11-02T04:44:48.731Z,2.00
2022-11-02T04:47:15.482Z,1.75
2022-11-02T04:49:42.200Z,2.67
2022-11-02T04:52:09.865Z,1.83
2022-11-02T04:54:36.597Z,3.28
2022-11-02T04:57:03.380Z,2.08
2022-11-02T04:59:30.117Z,1.92
2022-11-02T05:01:56.915Z,1.23
2022-11-02T05:04:23.785Z,1.95
2022-11-02T05:06:50.494Z,1.05
2022-11-02T05:09:17.276Z,1.15
2022-11-02T05:11:44.043Z,2.70
2022-11-02T05:14:10.758Z,1.27
2022-11-02T05:16:37.463Z,1.48
2022-11-02T05:19:06.860Z,2.10
2022-11-02T05:21:36.624Z,3.75
2022-11-02T05:24:03.397Z,2.45
2022-11-02T05:26:30.107Z,5.25
2022-11-02T05:28:56.806Z,3.05
2022-11-02T05:31:23.520Z,2.72
2022-11-02T05:33:50.221Z,2.00
2022-11-02T05:36:17.006Z,1.80
2022-11-02T05:38:43.696Z,2.95
2022-11-02T05:41:10.438Z,1.77
2022-11-02T05:43:37.139Z,1.38
2022-11-02T05:46:04.497Z,3.30
2022-11-02T05:48:32.128Z,1.50
2022-11-02T05:50:59.860Z,3.15
2022-11-02T05:53:27.794Z,2.15
2022-11-02T05:55:58.489Z,1.40
2022-11-02T05:58:27.914Z,1.95
2022-11-02T06:00:56.609Z,2.17
2022-11-02T06:03:23.630Z,1.85
2022-11-02T06:06:02.464Z,5.50
2022-11-02T06:08:34.679Z,2.67
2022-11-02T06:11:06.048Z,4.25
2022-11-02T06:13:33.032Z,5.88
2022-11-02T06:16:01.006Z,3.28
2022-11-02T06:18:29.824Z,3.13
2022-11-02T06:20:59.754Z,2.53
2022-11-02T06:23:28.927Z,2.05
2022-11-02T06:25:58.417Z,1.80
2022-11-02T06:28:27.708Z,1.60
2022-11-02T06:30:54.797Z,4.65
2022-11-02T06:33:21.860Z,6.55
2022-11-02T06:35:50.907Z,3.25
2022-11-02T06:38:18.211Z,4.80
2022-11-02T06:40:59.560Z,4.13
2022-11-02T06:43:27.218Z,6.00
2022-11-02T06:45:55.928Z,4.78
2022-11-02T06:48:23.113Z,4.88
2022-11-02T06:50:49.840Z,3.33
2022-11-02T06:53:16.563Z,2.45
2022-11-02T06:55:43.258Z,8.77
2022-11-02T06:58:10.079Z,3.95
2022-11-02T07:00:36.843Z,2.83
2022-11-02T07:03:07.898Z,4.00
2022-11-02T07:05:35.174Z,4.22
2022-11-02T07:08:01.929Z,10.57
2022-11-02T07:10:29.088Z,4.53
2022-11-02T07:12:57.686Z,3.83
2022-11-02T07:15:27.333Z,4.30
2022-11-02T07:17:54.272Z,2.97
2022-11-02T07:20:21.032Z,6.20
2022-11-02T07:22:59.582Z,2.28
2022-11-02T07:25:28.526Z,2.67
2022-11-02T07:27:55.225Z,6.47
2022-11-02T07:30:21.983Z,3.80
2022-11-02T07:32:48.806Z,3.25
2022-11-02T07:35:16.095Z,5.78
2022-11-02T07:37:42.897Z,4.97
2022-11-02T07:40:10.731Z,3.38
2022-11-02T07:42:45.678Z,3.03
2022-11-02T07:45:12.591Z,9.70
2022-11-02T07:47:43.951Z,5.13
2022-11-02T07:50:11.065Z,4.97
2022-11-02T07:52:50.269Z,2.63
2022-11-02T07:55:18.362Z,6.03
2022-11-02T07:57:58.676Z,6.53
2022-11-02T08:00:27.562Z,2.78
2022-11-02T08:02:55.386Z,3.28
2022-11-02T08:05:23.336Z,3.22
2022-11-02T08:08:02.013Z,4.13
2022-11-02T08:10:32.810Z,4.15
2022-11-02T08:13:03.771Z,4.03
2022-11-02T08:15:30.512Z,2.15
2022-11-02T08:18:04.690Z,3.33
2022-11-02T08:20:31.846Z,4.97
2022-11-02T08:22:59.185Z,6.55
2022-11-02T08:25:27.263Z,7.13
2022-11-02T08:28:01.512Z,4.47
2022-11-02T08:30:29.537Z,5.57
2022-11-02T08:32:57.534Z,3.60
2022-11-02T08:35:24.367Z,5.63
2022-11-02T08:37:59.943Z,4.13
2022-11-02T08:40:27.862Z,4.70
2022-11-02T08:43:02.384Z,3.65
2022-11-02T08:45:35.157Z,3.45
2022-11-02T08:48:09.884Z,2.30
2022-11-02T08:50:36.622Z,2.72
2022-11-02T08:53:03.426Z,3.92
2022-11-02T08:55:30.331Z,6.15
2022-11-02T08:57:58.895Z,4.07
2022-11-02T09:00:28.532Z,4.00
2022-11-02T09:03:05.373Z,3.45
2022-11-02T09:05:34.011Z,13.35
2022-11-02T09:08:02.505Z,8.35
2022-11-02T09:10:30.163Z,6.18
2022-11-02T09:12:59.433Z,3.75
2022-11-02T09:15:28.317Z,7.90
2022-11-02T09:17:55.098Z,5.40
2022-11-02T09:20:22.462Z,7.60
2022-11-02T09:22:49.337Z,5.25
2022-11-02T09:25:16.119Z,6.90
2022-11-02T09:27:42.910Z,2.85
2022-11-02T09:30:10.208Z,7.13
2022-11-02T09:32:37.089Z,4.25
2022-11-02T09:35:04.756Z,4.45
2022-11-02T09:37:31.573Z,4.85
2022-11-02T09:39:58.954Z,2.30
2022-11-02T09:42:32.381Z,3.85
2022-11-02T09:45:04.712Z,5.28
2022-11-02T09:50:34.663Z,4.30
2022-11-02T09:53:03.638Z,3.65
2022-11-02T09:55:35.486Z,6.30
2022-11-02T09:58:06.648Z,4.63
2022-11-02T10:00:35.606Z,5.50
2022-11-02T10:03:24.249Z,4.38
2022-11-02T10:06:17.721Z,8.23
2022-11-02T10:09:13.299Z,3.53
2022-11-02T10:11:58.456Z,3.08
2022-11-02T10:14:31.613Z,6.63
2022-11-02T10:17:05.952Z,4.30
2022-11-02T10:19:40.140Z,6.13
2022-11-02T10:22:08.576Z,6.57
2022-11-02T10:24:40.265Z,3.70
2022-11-02T10:27:16.044Z,5.65
2022-11-02T10:29:50.285Z,5.32
2022-11-02T10:32:17.096Z,7.32
2022-11-02T10:34:50.509Z,5.80
2022-11-02T10:38:19.050Z,5.95
2022-11-02T10:40:51.586Z,4.63
2022-11-02T10:43:42.819Z,6.18
2022-11-02T10:46:18.613Z,4.95
2022-11-02T10:48:49.186Z,5.93
2022-11-02T10:51:17.729Z,5.75
2022-11-02T10:53:49.102Z,4.22
2022-11-02T10:56:17.562Z,6.57
2022-11-02T10:58:57.885Z,8.35
2022-11-02T11:01:24.907Z,3.40
2022-11-02T11:03:58.778Z,5.00
2022-11-02T11:06:31.907Z,7.50
2022-11-02T11:09:00.389Z,4.18
2022-11-02T11:11:36.214Z,6.20
2022-11-02T11:20:02.730Z,7.30
2022-11-02T11:22:35.720Z,4.68
2022-11-02T11:25:05.313Z,9.13
2022-11-02T11:27:32.066Z,3.67
2022-11-02T11:29:59.153Z,5.25
2022-11-02T11:32:30.423Z,6.60
2022-11-02T11:35:02.496Z,4.60
2022-11-02T11:37:29.683Z,3.70
2022-11-02T11:40:05.242Z,7.03
2022-11-02T11:42:34.455Z,4.53
2022-11-02T11:45:17.544Z,3.55
2022-11-02T11:47:44.298Z,4.20
2022-11-02T11:50:20.457Z,4.13
2022-11-02T11:53:17.129Z,7.53
2022-11-02T11:56:01.436Z,5.93
2022-11-02T11:58:30.071Z,5.32
2022-11-02T12:01:14.433Z,3.75
2022-11-02T12:03:50.194Z,5.63
2022-11-02T12:06:36.530Z,6.15
2022-11-02T12:09:29.216Z,3.20
2022-11-02T12:12:05.662Z,4.13
2022-11-02T12:14:41.072Z,3.40
2022-11-02T12:17:18.229Z,5.20
2022-11-02T12:20:06.918Z,3.42
2022-11-02T12:22:52.178Z,6.80
2022-11-02T12:25:30.437Z,4.95
2022-11-02T12:28:24.765Z,5.32
2022-11-02T12:31:08.245Z,8.10
2022-11-02T12:33:59.185Z,4.45
2022-11-02T12:37:03.736Z,4.90
2022-11-02T12:39:37.854Z,7.20
2022-11-02T12:42:27.187Z,5.93
2022-11-02T12:45:00.539Z,7.90
2022-11-02T12:47:49.182Z,5.80
2022-11-02T12:50:34.803Z,5.28
2022-11-02T12:53:32.048Z,6.35
2022-11-02T12:56:00.692Z,5.25
2022-11-02T12:58:30.120Z,6.90
2022-11-02T13:01:13.321Z,3.88
2022-11-02T13:03:53.106Z,9.55
2022-11-02T13:06:31.827Z,6.28
2022-11-02T13:09:19.014Z,5.72
2022-11-02T13:11:48.856Z,5.30
2022-11-02T13:14:18.511Z,5.80
2022-11-02T13:16:49.898Z,7.65
2022-11-02T13:19:23.117Z,7.22
2022-11-02T13:21:55.091Z,4.50
2022-11-02T13:24:32.039Z,4.72
2022-11-02T13:27:14.401Z,6.18
2022-11-02T13:29:48.963Z,6.80
2022-11-02T13:32:33.403Z,5.05
2022-11-02T13:35:05.144Z,8.82
2022-11-02T13:37:35.594Z,7.97
2022-11-02T13:40:08.552Z,5.25
2022-11-02T13:43:00.289Z,5.13
2022-11-02T13:45:39.631Z,5.95
2022-11-02T13:48:14.830Z,6.53
2022-11-02T13:50:50.925Z,5.15
2022-11-02T13:53:25.869Z,6.68
2022-11-02T13:56:05.698Z,5.10
2022-11-02T13:58:37.102Z,8.82
2022-11-02T14:01:08.852Z,6.95
2022-11-02T14:03:50.729Z,8.68
2022-11-02T14:06:18.564Z,11.05
2022-11-02T14:08:56.274Z,9.13
2022-11-02T14:11:33.676Z,16.17
2022-11-02T14:14:04.240Z,15.23
2022-11-02T14:16:43.188Z,11.80
2022-11-02T14:19:19.254Z,7.20
2022-11-02T14:21:52.708Z,8.57
2022-11-02T14:24:35.016Z,8.10
2022-11-02T14:27:04.816Z,10.68
2022-11-02T14:29:46.356Z,8.48
2022-11-02T14:32:26.720Z,8.90
2022-11-02T14:35:26.541Z,13.13
2022-11-02T14:38:11.133Z,9.30
2022-11-02T14:40:43.141Z,9.20
2022-11-02T14:43:40.650Z,10.20
2022-11-02T14:46:27.021Z,11.00
2022-11-02T14:48:57.856Z,10.43
2022-11-02T14:51:34.466Z,9.25
2022-11-02T14:54:15.470Z,7.72
2022-11-02T14:57:13.647Z,8.85
2022-11-02T14:59:44.564Z,5.20
2022-11-02T15:02:21.025Z,8.07
2022-11-02T15:04:55.297Z,13.25
2022-11-02T15:07:35.606Z,11.30
2022-11-02T15:10:17.208Z,12.05
2022-11-02T15:12:46.850Z,10.07
2022-11-02T15:15:33.437Z,9.73
2022-11-02T15:18:34.109Z,7.32
2022-11-02T15:21:17.442Z,7.65
2022-11-02T15:23:58.818Z,8.05
2022-11-02T15:26:41.770Z,9.13
2022-11-02T15:29:20.784Z,8.05
2022-11-02T15:31:55.680Z,6.43
2022-11-02T15:34:26.195Z,6.47
2022-11-02T15:36:52.950Z,23.73
2022-11-02T15:39:19.900Z,8.60
2022-11-02T15:41:58.423Z,7.25
2022-11-02T15:44:33.446Z,8.05
2022-11-02T15:47:37.673Z,7.88
2022-11-02T15:50:08.302Z,15.70
2022-11-02T15:53:16.418Z,11.13
2022-11-02T15:55:47.444Z,7.60
2022-11-02T15:58:33.897Z,11.23
2022-11-02T16:01:12.148Z,6.90
2022-11-02T16:03:38.942Z,7.95
2022-11-02T16:06:06.177Z,8.40
2022-11-02T16:08:34.921Z,9.05
2022-11-02T16:11:19.822Z,6.50
2022-11-02T16:14:07.993Z,6.95
2022-11-02T16:16:36.096Z,5.82
2022-11-02T16:19:04.080Z,7.55
2022-11-02T16:21:32.175Z,7.75
2022-11-02T16:23:59.440Z,8.07
2022-11-02T16:26:26.830Z,7.75
2022-11-02T16:28:54.633Z,6.63
2022-11-02T16:31:23.597Z,6.25
2022-11-02T16:33:51.932Z,4.95
2022-11-02T16:36:19.396Z,7.13
2022-11-02T16:38:56.207Z,8.30
2022-11-02T16:41:24.451Z,8.50
2022-11-02T16:43:51.265Z,4.53
2022-11-02T16:46:18.121Z,7.28
2022-11-02T16:49:11.392Z,4.78
2022-11-02T16:51:38.128Z,6.13
2022-11-02T16:54:29.275Z,5.85
2022-11-02T16:56:58.026Z,10.15
2022-11-02T16:59:25.581Z,4.78
2022-11-02T17:01:52.413Z,6.22
2022-11-02T17:04:24.128Z,8.10
2022-11-02T17:06:53.019Z,4.97
2022-11-02T17:09:33.585Z,7.80
2022-11-02T17:12:04.879Z,5.90
2022-11-02T17:14:32.781Z,6.13
2022-11-02T17:17:00.658Z,6.10
2022-11-02T17:19:39.629Z,6.32
2022-11-02T17:22:13.128Z,6.63
2022-11-02T17:24:39.856Z,5.20
2022-11-02T17:27:41.020Z,6.45
2022-11-02T17:30:29.500Z,8.60
2022-11-02T17:33:08.527Z,6.75
2022-11-02T17:35:35.322Z,9.30
2022-11-02T17:38:03.987Z,8.43
2022-11-02T17:40:32.800Z,8.38
2022-11-02T17:42:59.809Z,10.02
2022-11-02T17:45:31.269Z,9.40
2022-11-02T17:47:58.819Z,9.18
2022-11-02T17:50:26.459Z,4.68
2022-11-02T17:52:53.376Z,6.47
2022-11-02T17:55:24.471Z,8.18
2022-11-02T17:57:51.189Z,8.05
2022-11-02T18:00:18.521Z,8.93
2022-11-02T18:02:48.677Z,11.32
2022-11-02T18:05:34.997Z,16.88
2022-11-02T18:08:02.992Z,9.95
2022-11-02T18:10:36.898Z,11.23
2022-11-02T18:13:04.743Z,12.85
2022-11-02T18:15:34.586Z,11.10
2022-11-02T18:18:01.386Z,15.07
2022-11-02T18:20:29.502Z,11.88
2022-11-02T18:22:57.187Z,13.63
2022-11-02T18:25:26.378Z,8.43
2022-11-02T18:27:53.590Z,16.48
2022-11-02T18:30:20.457Z,8.85
2022-11-02T18:32:49.031Z,9.35
2022-11-02T18:35:18.020Z,15.25
2022-11-02T18:37:45.018Z,11.82
2022-11-02T18:40:12.958Z,14.85
2022-11-02T18:42:39.926Z,11.38
2022-11-02T18:45:07.760Z,13.20
2022-11-02T18:47:35.044Z,9.88
2022-11-02T18:50:02.537Z,10.88
2022-11-02T18:52:32.126Z,9.50
2022-11-02T18:55:04.960Z,10.20
2022-11-02T18:57:33.257Z,10.38
2022-11-02T19:00:03.159Z,8.05
2022-11-02T19:02:30.402Z,9.23
2022-11-02T19:04:57.241Z,7.93
2022-11-02T19:07:42.796Z,13.10
2022-11-02T19:10:10.057Z,12.20
2022-11-02T19:12:36.896Z,11.35
2022-11-02T19:15:05.154Z,11.98
2022-11-02T19:17:31.981Z,8.52
2022-11-02T19:19:58.930Z,11.23
2022-11-02T19:22:26.403Z,10.40
2022-11-02T19:24:53.374Z,7.20
2022-11-02T19:27:24.396Z,12.38
2022-11-02T19:29:52.346Z,11.55
2022-11-02T19:32:19.231Z,11.65
2022-11-02T19:34:46.180Z,11.05
2022-11-02T19:37:13.239Z,9.55
2022-11-02T19:39:40.381Z,7.93
2022-11-02T19:42:08.219Z,8.50
2022-11-02T19:44:42.200Z,6.90
2022-11-02T19:47:10.105Z,8.13
2022-11-02T19:49:38.016Z,9.57
2022-11-02T19:52:05.513Z,9.55
2022-11-02T19:54:32.622Z,15.40
2022-11-02T19:56:59.386Z,7.03
2022-11-02T19:59:26.125Z,9.90
2022-11-02T20:01:53.010Z,8.30
2022-11-02T20:04:19.907Z,7.10
2022-11-02T20:06:46.698Z,10.15
2022-11-02T20:09:15.706Z,8.43
2022-11-02T20:11:44.715Z,7.95
2022-11-02T20:14:12.441Z,6.20
2022-11-02T20:16:39.744Z,6.18
2022-11-02T20:19:09.257Z,7.63
2022-11-02T20:21:42.946Z,10.43
2022-11-02T20:24:10.695Z,11.70
2022-11-02T20:26:38.663Z,11.30
2022-11-02T20:29:07.283Z,11.25
2022-11-02T20:31:37.698Z,7.65
2022-11-02T20:34:05.696Z,6.85
2022-11-02T20:36:33.161Z,9.32
2022-11-02T20:39:00.034Z,9.60
2022-11-02T20:41:27.338Z,6.85
2022-11-02T20:43:57.249Z,5.72
2022-11-02T20:46:42.271Z,6.13
2022-11-02T20:51:56.466Z,4.15
2022-11-02T20:54:23.923Z,4.15
2022-11-02T20:56:50.993Z,5.93
2022-11-02T20:59:17.779Z,5.93
2022-11-02T21:01:44.824Z,6.10
2022-11-02T21:04:15.521Z,6.05
2022-11-02T21:06:47.176Z,4.15
2022-11-02T21:09:13.931Z,5.82
2022-11-02T21:11:59.194Z,8.32
2022-11-02T21:14:25.908Z,4.97
2022-11-02T21:16:52.626Z,6.68
2022-11-02T21:19:19.443Z,4.47
2022-11-02T21:21:46.732Z,3.55
2022-11-02T21:24:13.698Z,5.03
2022-11-02T21:26:40.506Z,4.47
2022-11-02T21:29:08.832Z,4.85
2022-11-02T21:31:37.060Z,4.22
2022-11-02T21:34:03.809Z,5.70
2022-11-02T21:36:30.534Z,6.15
2022-11-02T21:38:58.734Z,6.30
2022-11-02T21:41:28.143Z,6.00
2022-11-02T21:43:55.634Z,3.80
2022-11-02T21:46:22.558Z,3.45
2022-11-02T21:48:49.339Z,5.95
2022-11-02T21:51:17.759Z,3.42
2022-11-02T21:53:45.028Z,5.00
2022-11-02T21:56:13.342Z,3.50
2022-11-02T21:58:44.752Z,3.17
2022-11-02T22:01:38.844Z,3.58
2022-11-02T22:04:06.201Z,5.03
2022-11-02T22:06:33.177Z,3.92
2022-11-02T22:09:00.422Z,4.95
2022-11-02T22:11:27.504Z,3.28
2022-11-02T22:13:55.235Z,3.97
2022-11-02T22:16:29.600Z,3.50
2022-11-02T22:18:57.745Z,4.32
2022-11-02T22:21:26.968Z,3.42
2022-11-02T22:23:53.895Z,4.80
2022-11-02T22:26:25.414Z,6.43
2022-11-02T22:28:52.344Z,5.60
2022-11-02T22:31:23.729Z,4.97
2022-11-02T22:33:52.330Z,3.50
2022-11-02T22:36:20.783Z,3.08
2022-11-02T22:38:56.544Z,4.47
2022-11-02T22:41:30.757Z,3.97
2022-11-02T22:44:01.691Z,3.55
2022-11-02T22:46:29.789Z,3.55
2022-11-02T22:48:57.338Z,4.25
2022-11-02T22:51:26.038Z,3.08
2022-11-02T22:53:52.942Z,3.70
2022-11-02T22:56:20.900Z,5.10
2022-11-02T22:58:48.094Z,3.83
2022-11-02T23:01:22.248Z,3.10
2022-11-02T23:03:49.370Z,6.03
2022-11-02T23:06:16.359Z,3.47
2022-11-02T23:08:47.295Z,3.47
2022-11-02T23:11:21.718Z,3.80
2022-11-02T23:13:59.361Z,3.53
2022-11-02T23:16:36.228Z,2.50
2022-11-02T23:19:27.563Z,3.38
2022-11-02T23:22:17.436Z,3.63
2022-11-02T23:25:10.078Z,6.50
2022-11-02T23:28:14.986Z,4.05
2022-11-02T23:31:00.439Z,3.15
2022-11-02T23:33:33.823Z,2.20
2022-11-02T23:36:14.727Z,3.00
2022-11-02T23:39:00.934Z,4.82
2022-11-02T23:41:27.989Z,2.20
2022-11-02T23:44:11.675Z,2.80
2022-11-02T23:46:42.499Z,2.03
2022-11-02T23:49:09.942Z,2.75
2022-11-02T23:51:55.257Z,3.25
2022-11-02T23:54:40.627Z,2.45
2022-11-02T23:57:07.349Z,2.45
2022-11-02T23:59:34.062Z,4.63
